Almond, NY

4:43 PM EDT on October 01, 2014 (GMT -0400)
Ardachy Farm | Change Station
CLOSE
Current Station
Personal Weather Station
Location: Alfred Station, NY
Elevation: 1877 ft
Nearby Weather Stations

Elev 1877 ft 42.28 °N, 77.77 °W | Updated 7 seconds ago

Partly Cloudy
Partly Cloudy
68.2 °F
Feels Like 68.2 °F
N
6.9
Wind Variable Wind from SE
Gusts 6.9 mph

Today
High -- | Low -- °F
--% Chance of Precip.
Yesterday
High -- | Low -- °F
Precip. -- in
7:08 AM 6:52 PM
Waxing Crescent, 51% visible
Pressure 29.90 in
Visibility 10.0 miles
Clouds Clear
Dew Point 58 °F
Humidity 71%
Rainfall 0.01 in
Snow Depth Not available.
UV 2 out of 12
Pollen 3.00 out of 12
PM2.5 Good
Flu Activity Not available.
METAR KELZ 302056Z AUTO 34005KT 10SM CLR 22/11 A2991 RMK AO2 LTG DSNT S AND SW SLP124 T02170106 56005

More Conditions Fewer Conditions

Pressure 29.90 in
Visibility 10.0 miles
Clouds Clear
Dew Point 58 °F
Humidity 71%
Rainfall 0.01 in
Snow Depth Not available.
UV 2 out of 12
Pollen 3.00 out of 12
PM2.5 Good
Flu Activity Not available.
METAR KELZ 302056Z AUTO 34005KT 10SM CLR 22/11 A2991 RMK AO2 LTG DSNT S AND SW SLP124 T02170106 56005

More Conditions Fewer Conditions

10-Day Weather Forecast

Almanac

Astronomy

Oct. 01, 2014 Rise Set
Actual Time 7:08 AM EDT 6:52 PM EDT
Civil Twilight 6:40 AM EDT 7:20 PM EDT
Nautical Twilight 6:07 AM EDT 7:53 PM EDT
Astronomical Twilight 5:34 AM EDT 8:26 PM EDT
Moon 2:12 PM EDT No Moon Set
Length of Visible Light 12h 40m
Length of Day
11h 44m
Tomorrow will be 2m 49s shorter.
Waxing Crescent, 51% of the Moon is Illuminated
Today
Waxing Crescent
Oct 8
Full
Oct 15
Last Quarter
Oct 23
New
Oct 30
First Quarter

Today's Extremes

State Highs State Lows

Community

WunderPhotos

Upload Photos

1,758,043 photos uploaded!

WunderBlogs® & News

By Dr. Jeff Masters
Director of Meteorology, Weather Underground
By Kari Strenfel
Meteorologist, Weather Underground
By Christopher C. Burt
Weather Historian, Weather Underground
October 1, 2014
October 1, 2014
October 1, 2014

Nearby

Air Quality

  Air Quality AQ Index Pollutant
Yesterday Good
PM2.5
Yesterday Good
OZONE
Current Good
PM2.5
Wednesday Good
PM2.5
Thursday Good
PM2.5

Snow Depth

Station Depth Elevation
No new snow has been reported.

Earthquake Activity

City Distance Mag. Time & Date
No recent earthquake activity has been reported nearby.
Minimum magnitude displayed is 2.5.

Coastal Water Temperatures

Place Temperature
No Stations Reporting

Nearby Weather Stations